Time;durP1;ratioP1;P1;durP2;ratioP2;P2;SDS_P1;SDS_P2;PMS_P1;PMS_P2;Temp;Humidity;BMP_temperature;BMP_pressure;BME280_temperature;BME280_humidity;BME280_pressure;Samples;Min_cycle;Max_cycle;Signal;HPM_P1;HPM_P2
2022/02/10 00:03:32;;;;;;;;;51.00;41.40;;;;;12.23;57.89;101671.13;2073363;28;47460;-57
2022/02/10 00:14:07;;;;;;;;;43.00;36.40;;;;;12.29;57.58;101660.38;2080008;28;47915;-58
2022/02/10 00:20:43;;;;;;;;;35.80;33.20;;;;;12.25;57.54;101659.56;2030636;29;47147;-56
2022/02/10 00:21:55;;;;;;;;;41.00;35.40;;;;;12.25;57.64;101659.56;2030903;29;48081;-59
2022/02/10 00:23:19;;;;;;;;;37.20;33.40;;;;;12.25;57.30;101662.22;2030883;29;47923;-58
2022/02/10 00:34:10;;;;;;;;;35.20;32.20;;;;;12.24;57.51;101656.91;2030484;29;47459;-58
2022/02/10 00:35:12;;;;;;;;;37.80;33.00;;;;;12.20;57.77;101661.41;1984448;29;46052;-62
2022/02/10 00:36:13;;;;;;;;;35.00;33.00;;;;;12.20;57.63;101658.75;1984205;29;47950;-56
2022/02/10 00:37:19;;;;;;;;;35.20;32.40;;;;;12.21;57.55;101659.63;1984482;29;48384;-57
2022/02/10 00:38:23;;;;;;;;;36.00;33.20;;;;;12.21;57.67;101664.94;1984355;29;48004;-58
2022/02/10 00:40:29;;;;;;;;;39.80;34.80;;;;;12.19;57.65;101659.63;1983584;29;47539;-56
2022/02/10 00:41:29;;;;;;;;;39.20;33.80;;;;;12.20;57.51;101663.19;1984254;29;48199;-58
2022/02/10 00:42:30;;;;;;;;;35.00;32.25;;;;;12.20;57.68;101668.50;1990378;29;47554;-57
2022/02/10 00:43:30;;;;;;;;;31.00;31.00;;;;;12.20;57.65;101665.84;1984570;29;47458;-59
2022/02/10 00:44:30;;;;;;;;;38.75;33.00;;;;;12.20;57.71;101661.41;1984501;29;47810;-58
2022/02/10 00:45:33;;;;;;;;;33.00;31.00;;;;;12.21;57.69;101664.94;1981677;29;47704;-57
2022/02/10 00:46:33;;;;;;;;;38.40;33.20;;;;;12.22;57.88;101664.03;1978444;29;48136;-58
2022/02/10 00:47:48;;;;;;;;;33.75;31.00;;;;;12.22;57.81;101672.03;1984427;29;47942;-58
2022/02/10 00:48:49;;;;;;;;;35.40;31.60;;;;;12.21;57.73;101662.28;1985730;29;47350;-57
2022/02/10 00:49:49;;;;;;;;;35.25;33.00;;;;;12.20;57.70;101666.72;1990090;29;47641;-60
2022/02/10 00:50:51;;;;;;;;;36.00;32.50;;;;;12.21;57.81;101664.94;1991993;29;47801;-58
2022/02/10 00:51:51;;;;;;;;;33.80;31.00;;;;;12.20;57.58;101661.41;1992159;29;47723;-58
2022/02/10 00:53:13;;;;;;;;;37.75;33.75;;;;;12.20;57.63;101668.50;1992158;29;47806;-58
2022/02/10 00:54:18;;;;;;;;;36.20;31.00;;;;;12.20;57.59;101664.06;1992015;29;47833;-56
2022/02/10 00:55:24;;;;;;;;;34.00;32.80;;;;;12.19;57.51;101664.94;1991947;29;47799;-59
2022/02/10 00:56:24;;;;;;;;;38.00;32.60;;;;;12.19;57.58;101664.94;1992229;29;47868;-58
2022/02/10 00:57:25;;;;;;;;;36.50;32.50;;;;;12.19;57.91;101666.72;1991698;29;47717;-58
2022/02/10 00:58:31;;;;;;;;;37.25;34.50;;;;;12.19;57.61;101666.72;2010628;29;48223;-59
2022/02/10 00:59:46;;;;;;;;;37.80;35.00;;;;;12.19;57.75;101672.03;2025112;29;47449;-58
2022/02/10 01:02:19;;;;;;;;;33.80;31.80;;;;;12.18;57.81;101670.28;2030471;29;48159;-58
2022/02/10 01:10:27;;;;;;;;;33.40;31.40;;;;;12.12;57.70;101668.59;2030782;29;47981;-58
2022/02/10 01:12:43;;;;;;;;;36.40;34.20;;;;;12.07;57.77;101666.00;2088114;28;47491;-61
2022/02/10 01:13:52;;;;;;;;;40.00;34.00;;;;;12.08;57.76;101678.41;2088468;28;47657;-57
2022/02/10 01:30:57;;;;;;;;;32.80;31.00;;;;;11.95;58.10;101676.78;2037757;28;47825;-57
2022/02/10 01:31:57;;;;;;;;;36.40;33.20;;;;;11.94;57.99;101668.81;2038690;28;47594;-57
2022/02/10 01:33:01;;;;;;;;;32.50;30.25;;;;;11.93;58.19;101673.25;2037703;28;47607;-58
2022/02/10 01:34:02;;;;;;;;;35.40;32.60;;;;;11.93;58.34;101669.72;2030228;29;47159;-58
2022/02/10 01:35:06;;;;;;;;;36.75;34.00;;;;;11.91;58.36;101669.72;2030446;29;47772;-58
2022/02/10 01:36:06;;;;;;;;;31.20;31.00;;;;;11.92;58.24;101670.63;2030087;29;48184;-58
2022/02/10 01:37:07;;;;;;;;;37.00;31.00;;;;;11.92;58.26;101673.28;2025728;29;47261;-58
2022/02/10 01:38:07;;;;;;;;;34.50;32.50;;;;;11.92;58.46;101678.59;2028745;29;48188;-58
2022/02/10 01:39:08;;;;;;;;;33.50;31.50;;;;;11.91;58.32;101675.06;2038096;28;47603;-57
2022/02/10 01:40:22;;;;;;;;;39.50;33.75;;;;;11.92;58.45;101671.50;2038201;28;47744;-58
2022/02/10 01:41:55;;;;;;;;;33.80;31.60;;;;;11.91;58.44;101676.84;2037869;28;48086;-57
2022/02/10 02:03:31;;;;;;;;;34.40;31.60;;;;;11.62;58.92;101688.66;2045876;28;47806;-58
2022/02/10 02:04:31;;;;;;;;;39.25;34.00;;;;;11.62;58.84;101690.44;2046133;28;47415;-58
2022/02/10 02:05:43;;;;;;;;;40.25;35.75;;;;;11.60;58.83;101685.13;2046102;28;47172;-59
2022/02/10 02:06:46;;;;;;;;;40.00;34.80;;;;;11.60;58.97;101686.91;2046122;28;47396;-57
2022/02/10 02:07:46;;;;;;;;;40.20;36.00;;;;;11.57;59.14;101682.50;2054321;28;47754;-58
2022/02/10 02:08:46;;;;;;;;;36.25;33.50;;;;;11.56;58.92;101685.16;2087345;28;47343;-58
2022/02/10 02:09:47;;;;;;;;;31.75;31.50;;;;;11.55;59.20;101683.41;2087882;28;47944;-57
2022/02/10 02:10:48;;;;;;;;;38.80;34.40;;;;;11.51;58.88;101685.22;2087710;28;47135;-57
2022/02/10 02:11:53;;;;;;;;;34.00;31.75;;;;;11.50;59.24;101688.78;2087460;28;47345;-58
2022/02/10 02:12:53;;;;;;;;;33.60;31.40;;;;;11.49;59.18;101679.03;2087689;28;47850;-59
2022/02/10 02:13:54;;;;;;;;;36.25;34.00;;;;;11.48;59.38;101679.94;2081941;28;47741;-57
2022/02/10 02:14:54;;;;;;;;;32.60;31.20;;;;;11.47;59.19;101684.38;2079128;28;47782;-59
2022/02/10 02:15:55;;;;;;;;;42.00;34.25;;;;;11.46;59.48;101684.41;2073290;28;47920;-55
2022/02/10 02:17:00;;;;;;;;;38.50;34.00;;;;;11.45;59.69;101682.63;2079465;28;48093;-58
2022/02/10 02:18:00;;;;;;;;;40.20;34.40;;;;;11.44;59.55;101684.41;2079418;28;47768;-56
2022/02/10 02:19:01;;;;;;;;;36.75;33.75;;;;;11.43;59.67;101680.00;2079641;28;47730;-58
2022/02/10 02:20:02;;;;;;;;;36.60;32.20;;;;;11.43;59.60;101689.72;2079362;28;48023;-58
2022/02/10 02:21:02;;;;;;;;;36.75;33.00;;;;;11.41;59.58;101684.41;2079624;28;47133;-57
2022/02/10 02:22:08;;;;;;;;;37.00;34.00;;;;;11.41;59.91;101692.38;2082420;28;47246;-58
2022/02/10 02:23:09;;;;;;;;;36.60;32.60;;;;;11.40;59.93;101692.41;2088278;28;47999;-60
2022/02/10 02:24:13;;;;;;;;;40.00;34.25;;;;;11.38;59.71;101686.22;2089223;28;48447;-58
2022/02/10 02:25:14;;;;;;;;;37.60;34.20;;;;;11.37;60.05;101692.44;2089347;28;48160;-57
2022/02/10 02:26:20;;;;;;;;;38.25;32.75;;;;;11.35;60.11;101687.16;2089015;28;47910;-55
2022/02/10 02:27:20;;;;;;;;;32.40;30.00;;;;;11.34;60.06;101690.69;2089021;28;47708;-59
2022/02/10 02:28:22;;;;;;;;;33.50;31.75;;;;;11.33;59.97;101683.63;2089171;28;47447;-58
2022/02/10 02:30:38;;;;;;;;;31.80;29.60;;;;;11.35;60.20;101694.25;2080387;28;47900;-58
2022/02/10 02:31:51;;;;;;;;;33.00;32.00;;;;;11.34;60.39;101684.50;2086444;28;47375;-58
2022/02/10 02:38:19;;;;;;;;;36.00;33.00;;;;;11.32;60.25;101688.97;2039162;28;47245;-59
2022/02/10 03:05:26;;;;;;;;;24.20;20.80;;;;;11.14;60.51;101671.38;2031339;29;47753;-58
2022/02/10 03:06:38;;;;;;;;;29.60;25.40;;;;;11.14;60.65;101669.63;2035402;28;47610;-58
2022/02/10 03:07:46;;;;;;;;;32.00;28.00;;;;;11.14;60.53;101666.06;2039081;28;47959;-59
2022/02/10 03:08:54;;;;;;;;;25.80;25.00;;;;;11.13;60.66;101665.19;2031038;29;47330;-56
2022/02/10 03:10:08;;;;;;;;;31.00;27.60;;;;;11.14;60.79;101663.41;2025180;29;47801;-56
2022/02/10 03:11:11;;;;;;;;;30.40;30.00;;;;;11.13;60.47;101665.19;2033822;28;47463;-56
2022/02/10 03:12:13;;;;;;;;;31.80;30.80;;;;;11.13;60.50;101657.22;2038683;28;47394;-57
2022/02/10 03:13:19;;;;;;;;;29.00;26.80;;;;;11.14;60.48;101655.44;2039022;28;47836;-58
2022/02/10 03:14:25;;;;;;;;;29.40;28.00;;;;;11.15;60.50;101659.88;2044004;28;48217;-58
2022/02/10 03:15:33;;;;;;;;;30.00;30.00;;;;;11.16;60.66;101661.63;2080376;28;48105;-57
2022/02/10 03:20:21;;;;;;;;;25.20;24.40;;;;;11.20;60.23;101658.94;2084839;28;45781;-55
2022/02/10 04:03:43;;;;;;;;;25.40;24.60;;;;;11.13;59.81;101698.84;2054736;28;47688;-58
2022/02/10 04:14:17;;;;;;;;;26.40;24.60;;;;;11.15;59.56;101713.00;2079334;28;47337;-58
2022/02/10 04:15:33;;;;;;;;;33.40;30.00;;;;;11.13;60.12;101710.34;2079792;28;45550;-58
2022/02/10 04:16:39;;;;;;;;;29.20;28.20;;;;;11.13;59.89;101710.34;2079933;28;47640;-59
2022/02/10 04:57:15;;;;;;;;;30.80;27.00;;;;;10.91;60.25;101736.19;2052415;28;48423;-58
2022/02/10 04:59:58;;;;;;;;;29.00;25.80;;;;;10.94;60.03;101729.13;2046218;28;48179;-58
2022/02/10 05:04:47;;;;;;;;;30.60;27.00;;;;;10.93;60.07;101730.91;2080110;28;47455;-58
2022/02/10 05:22:10;;;;;;;;;34.40;31.20;;;;;10.89;60.01;101726.47;2052883;28;47541;-57
2022/02/10 05:33:17;;;;;;;;;24.75;24.00;;;;;10.90;59.71;101722.94;2053928;28;47779;-58
2022/02/10 05:34:18;;;;;;;;;29.00;24.60;;;;;10.88;59.82;101733.56;2054400;28;46966;-59
2022/02/10 05:36:26;;;;;;;;;32.80;27.40;;;;;10.88;59.94;101714.97;2046414;28;48099;-57
2022/02/10 05:37:31;;;;;;;;;27.20;24.20;;;;;10.90;59.67;101725.59;2054423;28;47902;-58
2022/02/10 05:38:37;;;;;;;;;31.40;27.80;;;;;10.90;59.47;101726.47;2054465;28;47672;-58
2022/02/10 05:39:42;;;;;;;;;25.00;23.20;;;;;10.91;59.85;101730.88;2053988;28;47803;-58
2022/02/10 05:42:35;;;;;;;;;25.80;23.80;;;;;10.91;59.52;101724.69;2053859;28;47252;-58
2022/02/10 05:45:01;;;;;;;;;30.20;28.20;;;;;10.87;59.59;101731.81;2054254;28;47829;-56
2022/02/10 05:54:08;;;;;;;;;23.40;23.20;;;;;10.86;59.32;101755.72;2079086;28;47906;-56
2022/02/10 05:56:49;;;;;;;;;28.80;26.00;;;;;10.86;59.67;101756.59;2045818;28;47460;-58
2022/02/10 06:46:35;;;;;;;;;26.00;25.40;;;;;10.85;59.46;101775.19;2072170;28;47896;-59
2022/02/10 06:53:29;;;;;;;;;25.40;25.40;;;;;10.88;59.91;101778.72;2075277;28;47602;-57
2022/02/10 06:58:18;;;;;;;;;27.60;24.80;;;;;10.92;59.73;101782.22;2079088;28;47478;-58
2022/02/10 07:03:46;;;;;;;;;24.40;23.00;;;;;10.94;59.66;101791.09;2083329;28;47468;-57
2022/02/10 07:10:01;;;;;;;;;29.40;27.80;;;;;10.91;59.63;101797.28;2080208;28;47751;-60
2022/02/10 07:11:24;;;;;;;;;26.20;24.20;;;;;10.91;59.78;101794.63;2083733;28;48157;-59
2022/02/10 07:16:14;;;;;;;;;24.25;23.00;;;;;10.89;59.63;101793.75;2079664;28;46210;-58
2022/02/10 07:55:20;;;;;;;;;32.20;30.40;;;;;10.98;60.04;101805.22;2054789;28;48184;-57
2022/02/10 07:57:45;;;;;;;;;30.80;26.00;;;;;10.99;59.81;101805.22;2030845;29;47704;-56
2022/02/10 08:57:28;;;;;;;;;33.80;31.60;;;;;11.20;59.99;101865.31;2086472;28;47933;-58
2022/02/10 08:58:45;;;;;;;;;37.60;31.20;;;;;11.19;59.72;101864.44;2086524;28;47693;-56
2022/02/10 09:00:02;;;;;;;;;31.20;30.40;;;;;11.21;59.67;101867.06;2083270;28;48224;-57
2022/02/10 09:02:44;;;;;;;;;33.00;30.60;;;;;11.22;59.72;101866.19;2074817;28;47869;-58
2022/02/10 09:05:03;;;;;;;;;32.60;31.40;;;;;11.22;59.67;101868.84;2078266;28;48043;-56
2022/02/10 09:06:21;;;;;;;;;31.00;30.80;;;;;11.24;59.43;101866.16;2079821;28;48266;-58
2022/02/10 09:12:37;;;;;;;;;41.00;32.20;;;;;11.24;59.61;101860.84;2079283;28;47591;-55
2022/02/10 09:18:11;;;;;;;;;32.80;31.00;;;;;11.26;59.53;101867.91;2071185;28;48274;-56
2022/02/10 09:56:11;;;;;;;;;40.40;32.60;;;;;11.46;58.98;101887.28;2046249;28;47307;-57
2022/02/10 09:59:57;;;;;;;;;29.20;27.20;;;;;11.46;58.45;101891.72;2057243;28;48260;-55
2022/02/10 10:01:29;;;;;;;;;33.00;29.80;;;;;11.46;58.81;101892.59;2050338;28;47529;-58
2022/02/10 10:02:37;;;;;;;;;33.00;30.80;;;;;11.46;59.03;101897.91;2053854;28;48542;-55
2022/02/10 10:03:43;;;;;;;;;31.20;30.60;;;;;11.47;58.97;101890.81;2054071;28;47415;-54
2022/02/10 10:05:02;;;;;;;;;32.60;31.00;;;;;11.48;59.10;101890.81;2053885;28;47458;-60
2022/02/10 10:06:27;;;;;;;;;27.80;26.60;;;;;11.49;58.99;101895.22;2053665;28;47764;-57
2022/02/10 10:07:45;;;;;;;;;30.80;29.20;;;;;11.50;58.90;101891.69;2054061;28;48580;-53
2022/02/10 10:09:04;;;;;;;;;27.00;26.20;;;;;11.50;58.77;101896.13;2053803;28;47994;-56
2022/02/10 10:12:09;;;;;;;;;31.60;29.00;;;;;11.52;58.95;101893.44;2054484;28;48169;-57
2022/02/10 10:16:56;;;;;;;;;26.40;24.80;;;;;11.54;58.74;101896.97;2054006;28;47711;-58
2022/02/10 10:20:17;;;;;;;;;30.80;26.20;;;;;11.56;58.80;101890.78;2054049;28;47429;-58
2022/02/10 10:50:25;;;;;;;;;30.20;27.40;;;;;11.70;58.19;101910.16;2020070;29;47947;-57
2022/02/10 10:52:00;;;;;;;;;26.00;23.00;;;;;11.72;58.26;101910.16;2023437;29;48093;-60
2022/02/10 10:54:15;;;;;;;;;29.40;27.80;;;;;11.70;58.21;101899.53;2023271;29;48267;-59
2022/02/10 10:55:35;;;;;;;;;24.40;24.40;;;;;11.71;58.08;101906.63;2023758;29;47592;-58
2022/02/10 10:56:39;;;;;;;;;29.80;26.40;;;;;11.73;58.08;101906.59;2023436;29;47927;-57
2022/02/10 10:57:42;;;;;;;;;27.60;26.40;;;;;11.73;58.28;101898.63;2023192;29;47655;-58
2022/02/10 11:03:40;;;;;;;;;32.00;28.60;;;;;11.75;58.16;101907.47;2027471;29;47450;-58
2022/02/10 11:06:34;;;;;;;;;26.40;23.00;;;;;11.77;57.99;101895.91;2023808;29;47834;-58
2022/02/10 11:37:39;;;;;;;;;27.80;26.40;;;;;12.03;57.95;101878.88;2082121;28;47325;-59
2022/02/10 11:38:45;;;;;;;;;24.80;23.00;;;;;12.04;57.99;101870.88;2087516;28;47888;-57
2022/02/10 11:40:11;;;;;;;;;23.40;21.40;;;;;12.06;57.93;101871.75;2090126;28;47615;-58
2022/02/10 11:43:35;;;;;;;;;28.80;25.20;;;;;12.11;57.75;101876.16;2090330;28;47971;-57
2022/02/10 11:46:17;;;;;;;;;23.60;23.60;;;;;12.14;57.79;101876.13;2088456;28;47613;-60
2022/02/10 12:35:42;;;;;;;;;15.75;13.75;;;;;12.56;57.25;101803.78;2041283;28;48492;-57
2022/02/10 12:40:05;;;;;;;;;13.40;13.40;;;;;12.60;57.00;101800.19;2053328;28;47536;-55
2022/02/10 13:33:10;;;;;;;;;10.00;10.00;;;;;12.29;61.09;101757.06;2014470;29;47555;-56
2022/02/10 13:36:05;;;;;;;;;11.00;11.00;;;;;12.28;61.09;101754.44;2022105;29;47555;-57
2022/02/10 14:16:53;;;;;;;;;15.00;15.00;;;;;12.30;60.22;101741.97;2010129;29;47604;-58
2022/02/10 14:18:10;;;;;;;;;13.25;12.50;;;;;12.28;60.31;101734.03;2007210;29;47823;-58
2022/02/10 14:19:16;;;;;;;;;16.75;15.00;;;;;12.29;60.28;101742.88;2008408;29;47402;-57
2022/02/10 14:21:34;;;;;;;;;9.25;9.00;;;;;12.29;60.06;101742.88;2006122;29;47369;-58
2022/02/10 14:26:56;;;;;;;;;11.00;10.50;;;;;12.28;59.73;101736.69;2016951;29;46101;-59
2022/02/10 14:27:56;;;;;;;;;13.33;12.00;;;;;12.30;59.91;101736.66;2023559;29;47725;-58
2022/02/10 14:28:57;;;;;;;;;13.33;13.33;;;;;12.30;60.00;101734.00;2024454;29;45731;-57
2022/02/10 14:29:57;;;;;;;;;11.67;11.67;;;;;12.31;59.89;101733.09;2028134;28;47391;-56
2022/02/10 14:31:09;;;;;;;;;11.33;11.33;;;;;12.31;59.79;101728.66;2047395;28;47733;-57
2022/02/10 14:32:11;;;;;;;;;12.50;10.75;;;;;12.32;59.78;101730.44;2047379;28;48394;-58
2022/02/10 14:33:11;;;;;;;;;11.75;11.75;;;;;12.33;59.73;101734.00;2047395;28;47953;-57
2022/02/10 14:34:20;;;;;;;;;13.75;13.75;;;;;12.34;59.49;101728.63;2047113;28;47541;-59
2022/02/10 14:35:27;;;;;;;;;14.50;14.50;;;;;12.36;59.82;101731.28;2047097;28;47549;-55
2022/02/10 14:36:51;;;;;;;;;14.00;13.50;;;;;12.37;59.80;101733.03;2047542;28;48085;-56
2022/02/10 14:38:12;;;;;;;;;13.00;12.75;;;;;12.37;59.71;101723.25;2045081;28;47271;-58
2022/02/10 15:12:58;;;;;;;;;13.75;13.75;;;;;12.59;59.09;101713.22;2029596;29;47313;-56
2022/02/10 15:46:00;;;;;;;;;16.60;16.60;;;;;12.72;58.21;101703.25;2055520;28;46010;-55
2022/02/10 15:55:18;;;;;;;;;20.60;20.60;;;;;12.76;59.83;101714.75;2030654;29;48172;-58
2022/02/10 16:16:54;;;;;;;;;20.00;17.60;;;;;12.70;60.81;101696.19;2024712;29;48059;-57
2022/02/10 16:17:56;;;;;;;;;19.20;19.00;;;;;12.68;61.06;101686.44;2027959;29;46972;-59
2022/02/10 16:19:00;;;;;;;;;20.00;19.00;;;;;12.69;61.17;101687.31;2020062;29;47660;-57
2022/02/10 16:20:07;;;;;;;;;24.00;21.60;;;;;12.70;61.19;101688.19;2022293;29;47677;-57
2022/02/10 16:21:08;;;;;;;;;25.40;23.20;;;;;12.69;61.09;101689.97;2020766;29;48059;-58
2022/02/10 16:23:20;;;;;;;;;24.40;23.80;;;;;12.70;61.14;101686.41;2021456;29;48102;-56
2022/02/10 16:24:29;;;;;;;;;19.00;17.80;;;;;12.70;61.10;101685.53;2022864;29;47855;-56
2022/02/10 16:25:34;;;;;;;;;24.60;24.60;;;;;12.70;61.06;101682.84;2022431;29;47916;-57
2022/02/10 16:26:42;;;;;;;;;24.80;19.00;;;;;12.71;61.07;101680.19;2036168;28;46621;-56
2022/02/10 16:27:49;;;;;;;;;22.40;21.20;;;;;12.71;60.99;101684.66;2041395;28;47960;-58
2022/02/10 16:28:50;;;;;;;;;19.80;19.20;;;;;12.72;60.90;101684.63;2067750;28;47256;-56
2022/02/10 16:29:57;;;;;;;;;21.75;20.75;;;;;12.72;61.10;101684.63;2078990;28;48090;-56
2022/02/10 16:30:59;;;;;;;;;21.20;19.40;;;;;12.72;61.01;101689.06;2075360;28;48542;-56
2022/02/10 16:31:59;;;;;;;;;28.00;25.80;;;;;12.72;60.86;101684.63;2077053;28;48292;-54
2022/02/10 16:32:59;;;;;;;;;27.25;24.25;;;;;12.73;60.90;101691.72;2076243;28;47697;-58
2022/02/10 16:34:00;;;;;;;;;23.00;21.00;;;;;12.72;60.98;101679.28;2083247;28;47609;-59
2022/02/10 16:35:03;;;;;;;;;23.25;22.25;;;;;12.73;60.85;101681.06;2084742;28;46118;-59
2022/02/10 16:36:05;;;;;;;;;19.80;19.00;;;;;12.74;60.54;101681.94;2087248;28;47455;-58
2022/02/10 16:37:10;;;;;;;;;25.80;25.80;;;;;12.75;60.56;101686.34;2085639;28;48189;-57
2022/02/10 16:38:11;;;;;;;;;25.20;25.20;;;;;12.75;60.78;101681.03;2087040;28;48041;-59
2022/02/10 16:39:15;;;;;;;;;26.50;26.25;;;;;12.73;60.87;101683.72;2082163;28;47746;-57
2022/02/10 16:40:15;;;;;;;;;24.40;21.80;;;;;12.74;60.89;101674.81;2086550;28;48019;-58
2022/02/10 16:41:16;;;;;;;;;25.00;23.50;;;;;12.74;60.99;101674.81;2080996;28;47115;-56
2022/02/10 16:42:16;;;;;;;;;23.25;19.50;;;;;12.75;60.93;101681.03;2086863;28;47309;-58
2022/02/10 16:43:17;;;;;;;;;22.00;21.75;;;;;12.75;61.16;101679.25;2084812;28;47737;-57
2022/02/10 16:44:18;;;;;;;;;21.75;21.75;;;;;12.74;60.95;101680.16;2086738;28;48023;-58
2022/02/10 16:45:19;;;;;;;;;21.60;21.00;;;;;12.74;60.91;101674.81;2080417;28;48109;-57
2022/02/10 16:46:19;;;;;;;;;20.50;19.00;;;;;12.75;60.86;101673.91;2087039;28;46034;-56
2022/02/10 16:47:20;;;;;;;;;21.75;18.50;;;;;12.75;60.85;101684.56;2081658;28;48004;-58
2022/02/10 16:48:20;;;;;;;;;18.75;17.75;;;;;12.75;60.46;101683.69;2087105;28;47914;-55
2022/02/10 16:49:22;;;;;;;;;22.75;18.25;;;;;12.76;60.46;101682.78;2083880;28;46406;-56
2022/02/10 16:50:24;;;;;;;;;17.80;17.00;;;;;12.76;59.91;101690.78;2087963;28;47469;-56
2022/02/10 16:51:26;;;;;;;;;11.50;11.50;;;;;12.75;59.57;101687.22;2076130;28;48002;-57
2022/02/10 16:52:40;;;;;;;;;11.25;10.25;;;;;12.75;58.97;101694.34;2079072;28;47472;-56
2022/02/10 16:53:46;;;;;;;;;11.00;11.00;;;;;12.74;58.68;101696.13;2081506;28;47722;-56
2022/02/10 16:54:49;;;;;;;;;13.50;12.75;;;;;12.74;58.43;101695.25;2077670;28;47974;-59
2022/02/10 16:55:59;;;;;;;;;14.25;13.75;;;;;12.73;58.59;101694.38;2084718;28;47792;-58
2022/02/10 16:57:41;;;;;;;;;12.75;11.00;;;;;12.74;58.38;101692.59;2088112;28;47635;-57
2022/02/10 16:58:36;;;;;;;;;13.50;12.00;;;;;12.73;58.56;101689.03;2083897;28;47937;-58
2022/02/10 16:59:48;;;;;;;;;13.75;13.50;;;;;12.73;58.44;101681.06;2087693;28;46202;-55
2022/02/10 17:01:18;;;;;;;;;13.00;13.00;;;;;12.73;58.33;101686.38;2080126;28;47981;-57
2022/02/10 17:20:46;;;;;;;;;22.60;18.00;;;;;12.74;59.23;101725.44;2087862;28;47162;-57
2022/02/10 17:26:30;;;;;;;;;24.40;24.00;;;;;12.74;60.69;101728.09;2051129;28;47598;-57
2022/02/10 17:27:30;;;;;;;;;29.80;25.80;;;;;12.74;61.06;101738.75;2062348;28;47559;-57
2022/02/10 17:28:30;;;;;;;;;28.40;27.40;;;;;12.74;61.34;101727.22;2075573;28;48744;-58
2022/02/10 17:29:56;;;;;;;;;29.50;27.50;;;;;12.73;61.34;101736.09;2071575;28;47254;-57
2022/02/10 17:31:08;;;;;;;;;28.20;26.20;;;;;12.73;61.18;101734.31;2071207;28;45849;-57
2022/02/10 17:32:26;;;;;;;;;21.60;20.80;;;;;12.72;61.65;101743.22;2062698;28;47123;-58
2022/02/10 17:33:51;;;;;;;;;20.20;20.20;;;;;12.71;61.71;101737.91;2070053;28;47772;-56
2022/02/10 17:36:12;;;;;;;;;19.20;19.00;;;;;12.70;61.89;101746.78;2064511;28;47674;-58
2022/02/10 17:42:44;;;;;;;;;16.80;16.00;;;;;12.59;62.18;101763.81;2059920;28;48069;-58
2022/02/10 17:46:09;;;;;;;;;8.75;8.00;;;;;12.51;61.46;101775.44;2061808;28;47663;-57
2022/02/10 17:52:26;;;;;;;;;7.25;7.25;;;;;12.28;61.31;101800.56;2063143;28;47940;-59
2022/02/10 17:53:29;;;;;;;;;8.00;7.00;;;;;12.25;61.07;101797.94;2067806;28;47555;-54
2022/02/10 17:54:29;;;;;;;;;6.00;5.00;;;;;12.20;63.10;101804.22;2062337;28;48158;-55
2022/02/10 17:55:30;;;;;;;;;7.00;7.00;;;;;12.16;61.40;101800.69;2063895;28;47543;-57
2022/02/10 17:56:32;;;;;;;;;6.75;6.00;;;;;12.14;60.92;101802.50;2062083;28;48154;-55
2022/02/10 17:57:33;;;;;;;;;8.50;7.25;;;;;12.11;61.34;101809.63;2069042;28;48149;-57
2022/02/10 17:58:34;;;;;;;;;7.00;7.00;;;;;12.08;61.30;101813.22;2078848;28;47904;-58
2022/02/10 17:59:35;;;;;;;;;4.00;4.00;;;;;12.06;61.01;101807.88;2079248;28;47312;-57
2022/02/10 18:00:35;;;;;;;;;5.00;5.00;;;;;12.04;60.81;101814.13;2085020;28;47468;-58
2022/02/10 18:01:36;;;;;;;;;5.00;5.00;;;;;11.99;61.28;101815.97;2079423;28;47932;-57
2022/02/10 18:02:36;;;;;;;;;5.00;5.00;;;;;11.96;61.08;101811.56;2079654;28;47384;-55
2022/02/10 18:03:37;;;;;;;;;6.33;6.00;;;;;11.93;61.38;101816.88;2079707;28;47772;-58
2022/02/10 18:04:38;;;;;;;;;8.25;6.25;;;;;11.90;61.26;101816.03;2079362;28;48115;-55
2022/02/10 18:06:53;;;;;;;;;5.25;5.25;;;;;11.86;63.74;101828.50;2079500;28;47775;-58
2022/02/10 18:07:56;;;;;;;;;5.25;5.00;;;;;11.83;66.47;101822.34;2079394;28;48253;-58
2022/02/10 18:15:17;;;;;;;;;7.75;7.75;;;;;11.73;61.49;101832.13;2071331;28;47634;-57
2022/02/10 18:16:27;;;;;;;;;7.25;5.75;;;;;11.73;61.65;101832.13;2076275;28;47497;-57
2022/02/10 18:17:32;;;;;;;;;7.00;7.00;;;;;11.72;61.74;101833.91;2075346;28;47685;-57
2022/02/10 18:18:40;;;;;;;;;8.50;6.75;;;;;11.70;61.38;101829.50;2087397;28;47746;-58
2022/02/10 18:19:49;;;;;;;;;8.00;8.00;;;;;11.68;61.32;101839.25;2079174;28;47560;-58
2022/02/10 18:20:57;;;;;;;;;8.00;8.00;;;;;11.67;61.46;101846.34;2072313;28;45671;-63
2022/02/10 18:23:08;;;;;;;;;11.00;10.00;;;;;11.66;61.73;101841.94;2079555;28;47688;-64
2022/02/10 18:26:55;;;;;;;;;10.75;10.75;;;;;11.62;62.80;101850.84;2078283;28;47737;-64
2022/02/10 18:29:16;;;;;;;;;12.75;11.00;;;;;11.55;61.57;101859.72;2081844;28;48065;-63
2022/02/10 18:30:21;;;;;;;;;9.50;9.50;;;;;11.54;61.92;101857.97;2079841;28;47650;-65
2022/02/10 19:08:07;;;;;;;;;7.00;7.00;;;;;11.13;60.55;101917.59;2093306;28;47837;-58
2022/02/10 19:09:21;;;;;;;;;5.75;4.75;;;;;11.13;60.53;101929.97;2088818;28;47721;-58
2022/02/10 19:10:25;;;;;;;;;8.00;7.75;;;;;11.11;60.13;101932.66;2087741;28;47910;-59
2022/02/10 19:11:25;;;;;;;;;4.25;4.25;;;;;11.10;60.11;101938.84;2083340;28;47873;-57
2022/02/10 19:12:30;;;;;;;;;6.00;6.00;;;;;11.10;59.69;101945.94;2081315;28;48036;-60
2022/02/10 19:13:30;;;;;;;;;7.25;6.50;;;;;11.08;60.06;101939.75;2079833;28;46127;-58
2022/02/10 19:14:35;;;;;;;;;3.67;3.00;;;;;11.05;59.79;101940.66;2093001;28;47231;-57
2022/02/10 19:15:36;;;;;;;;;4.50;4.50;;;;;11.03;59.83;101941.53;2084772;28;48101;-59
2022/02/10 19:16:36;;;;;;;;;5.67;4.33;;;;;11.02;59.82;101947.75;2085325;28;47526;-57
2022/02/10 19:17:37;;;;;;;;;7.67;7.67;;;;;11.02;59.85;101945.09;2084407;28;47856;-59
2022/02/10 19:18:37;;;;;;;;;4.33;4.33;;;;;10.99;60.01;101945.09;2085219;28;47622;-59
2022/02/10 19:19:37;;;;;;;;;3.00;3.00;;;;;10.98;60.00;101940.69;2074971;28;46397;-58
2022/02/10 19:20:39;;;;;;;;;4.33;3.33;;;;;10.97;59.70;101944.22;2087939;28;48107;-59
2022/02/10 19:21:39;;;;;;;;;3.50;3.50;;;;;10.93;59.92;101951.34;2087281;28;47800;-59
2022/02/10 19:22:41;;;;;;;;;3.00;3.00;;;;;10.91;60.00;101953.97;2087601;28;48116;-58
2022/02/10 19:23:41;;;;;;;;;4.50;4.50;;;;;10.88;59.70;101947.78;2084631;28;47490;-59
2022/02/10 19:24:42;;;;;;;;;11.00;9.00;;;;;10.87;59.75;101951.34;2087450;28;47738;-55
2022/02/10 19:25:42;;;;;;;;;3.00;3.00;;;;;10.85;59.97;101948.69;2088139;28;47224;-57
2022/02/10 19:26:50;;;;;;;;;4.00;4.00;;;;;10.83;59.84;101945.16;2093673;28;47496;-58
2022/02/10 19:27:50;;;;;;;;;5.00;5.00;;;;;10.83;60.00;101950.47;2085955;28;48030;-55
2022/02/10 19:28:51;;;;;;;;;7.00;7.00;;;;;10.81;59.85;101949.59;2086345;28;47040;-60
2022/02/10 19:29:57;;;;;;;;;5.33;4.67;;;;;10.81;59.90;101948.72;2085009;28;48431;-60
2022/02/10 19:30:59;;;;;;;;;5.00;5.00;;;;;10.81;59.91;101949.59;2085744;28;47324;-59
2022/02/10 19:31:59;;;;;;;;;4.25;3.25;;;;;10.82;59.88;101955.78;2082377;28;47654;-59
2022/02/10 19:33:02;;;;;;;;;5.33;4.00;;;;;10.82;59.94;101955.78;2088510;28;47117;-60
2022/02/10 19:34:04;;;;;;;;;5.50;5.00;;;;;10.81;59.98;101957.56;2080268;28;47946;-59
2022/02/10 19:35:06;;;;;;;;;5.00;5.00;;;;;10.82;59.97;101954.03;2081692;28;47880;-59
2022/02/10 19:36:06;;;;;;;;;4.25;3.25;;;;;10.83;59.87;101960.22;2079313;28;47632;-56
2022/02/10 19:37:07;;;;;;;;;3.00;3.00;;;;;10.84;59.88;101962.84;2079140;28;47549;-57
2022/02/10 19:38:09;;;;;;;;;5.67;4.00;;;;;10.84;59.73;101961.97;2080430;28;48027;-56
2022/02/10 19:39:14;;;;;;;;;3.25;3.25;;;;;10.84;60.12;101964.63;2075773;28;47889;-57
2022/02/10 19:40:14;;;;;;;;;3.00;3.00;;;;;10.83;59.74;101968.19;2079645;28;47911;-55